Time;durP1;ratioP1;P1;durP2;ratioP2;P2;SDS_P1;SDS_P2;PMS_P1;PMS_P2;Temp;Humidity;BMP_temperature;BMP_pressure;BME280_temperature;BME280_humidity;BME280_pressure;Samples;Min_cycle;Max_cycle;Signal;HPM_P1;HPM_P2
2020/12/18 00:01:06;;;;;;;;;;;;;;;4.58;100.00;101628.41;5115482;28;19923;-75
2020/12/18 00:03:32;;;;;;;;;;;;;;;4.54;100.00;101621.41;5115315;28;19927;-76
2020/12/18 00:05:59;;;;;;;;;;;;;;;4.53;100.00;101628.59;5115187;28;19927;-76
2020/12/18 00:08:24;;;;;;;;;;;;;;;4.53;100.00;101619.69;5115084;28;19931;-76
2020/12/18 00:10:50;;;;;;;;;;;;;;;4.52;100.00;101624.16;5114882;28;19924;-76
2020/12/18 00:13:16;;;;;;;;;;;;;;;4.50;100.00;101627.84;5114946;28;19924;-76
2020/12/18 00:15:42;;;;;;;;;;;;;;;4.48;100.00;101632.44;5115044;28;20381;-75
2020/12/18 00:18:07;;;;;;;;;;;;;;;4.46;100.00;101632.50;5114822;28;19924;-76
2020/12/18 00:20:33;;;;;;;;;;;;;;;4.44;100.00;101631.66;5114920;28;19931;-76
2020/12/18 00:23:00;;;;;;;;;;;;;;;4.40;100.00;101634.56;5114905;28;19927;-76
2020/12/18 00:25:26;;;;;;;;;;;;;;;4.39;100.00;101630.97;5114671;28;19928;-75
2020/12/18 00:27:51;;;;;;;;;;;;;;;4.38;100.00;101628.38;5114520;28;19931;-76
2020/12/18 00:30:17;;;;;;;;;;;;;;;4.38;100.00;101637.28;5114431;28;19956;-76
2020/12/18 00:32:43;;;;;;;;;;;;;;;4.36;100.00;101636.50;5114581;28;19931;-76
2020/12/18 00:35:09;;;;;;;;;;;;;;;4.45;100.00;101637.91;5114619;28;20304;-76
2020/12/18 00:37:35;;;;;;;;;;;;;;;4.48;100.00;101646.75;5114256;28;20403;-76
2020/12/18 00:40:02;;;;;;;;;;;;;;;4.56;100.00;101640.16;5113301;28;20023;-76
2020/12/18 00:42:28;;;;;;;;;;;;;;;4.64;100.00;101638.06;5114440;28;20010;-76
2020/12/18 00:44:54;;;;;;;;;;;;;;;4.65;100.00;101631.72;5114435;28;19969;-76
2020/12/18 00:47:20;;;;;;;;;;;;;;;4.67;100.00;101638.78;5113994;28;20281;-76
2020/12/18 00:49:46;;;;;;;;;;;;;;;4.77;100.00;101641.06;5114399;28;19923;-76
2020/12/18 00:52:12;;;;;;;;;;;;;;;4.75;100.00;101646.53;5114341;27;19985;-76
2020/12/18 00:54:37;;;;;;;;;;;;;;;4.69;100.00;101638.75;5114159;28;19924;-76
2020/12/18 00:57:04;;;;;;;;;;;;;;;4.67;100.00;101643.28;5112910;28;20394;-75
2020/12/18 00:59:30;;;;;;;;;;;;;;;4.71;100.00;101641.34;5112568;28;19931;-76
2020/12/18 01:01:56;;;;;;;;;;;;;;;4.77;100.00;101643.75;5112686;28;19924;-75
2020/12/18 01:04:22;;;;;;;;;;;;;;;4.79;100.00;101642.75;5113709;28;19924;-76
2020/12/18 01:06:48;;;;;;;;;;;;;;;4.84;100.00;101643.44;5113834;28;20362;-76
2020/12/18 01:09:16;;;;;;;;;;;;;;;4.86;100.00;101641.59;5094929;28;20437;-76
2020/12/18 01:11:42;;;;;;;;;;;;;;;4.92;100.00;101645.81;5112831;28;19927;-76
2020/12/18 01:14:13;;;;;;;;;;;;;;;4.90;100.00;101649.50;5113939;28;19931;-76
2020/12/18 01:16:51;;;;;;;;;;;;;;;4.88;100.00;101654.06;5112565;28;19924;-76
2020/12/18 01:19:18;;;;;;;;;;;;;;;4.87;100.00;101653.22;5112440;28;20266;-76
2020/12/18 01:21:44;;;;;;;;;;;;;;;4.89;100.00;101658.50;5113763;28;19931;-76
2020/12/18 01:24:11;;;;;;;;;;;;;;;4.91;100.00;101657.50;5112402;28;19934;-76
2020/12/18 01:26:42;;;;;;;;;;;;;;;4.95;100.00;101655.56;5112427;28;20304;-76
2020/12/18 01:29:08;;;;;;;;;;;;;;;4.99;100.00;101651.81;5112478;28;19930;-76
2020/12/18 01:31:36;;;;;;;;;;;;;;;5.04;100.00;101660.56;5112433;28;19977;-76
2020/12/18 01:34:03;;;;;;;;;;;;;;;5.05;100.00;101670.41;5112060;28;20258;-76
2020/12/18 01:36:30;;;;;;;;;;;;;;;5.07;100.00;101663.13;5111760;28;20468;-76
2020/12/18 01:39:03;;;;;;;;;;;;;;;5.04;100.00;101674.03;5112283;28;20269;-76
2020/12/18 01:41:31;;;;;;;;;;;;;;;4.99;100.00;101666.13;5112226;28;19924;-76
2020/12/18 01:43:57;;;;;;;;;;;;;;;4.84;100.00;101654.22;5112046;28;19968;-76
2020/12/18 01:46:26;;;;;;;;;;;;;;;4.74;100.00;101666.28;5111927;28;19928;-76
2020/12/18 01:48:54;;;;;;;;;;;;;;;4.62;100.00;101664.13;5112029;28;20015;-76
2020/12/18 01:51:20;;;;;;;;;;;;;;;4.55;100.00;101668.88;5111939;28;19928;-76
2020/12/18 01:53:48;;;;;;;;;;;;;;;4.49;100.00;101664.63;5111594;28;20393;-76
2020/12/18 01:56:30;;;;;;;;;;;;;;;4.41;100.00;101677.50;5094669;28;20273;-76
2020/12/18 01:59:07;;;;;;;;;;;;;;;4.43;100.00;101674.75;5111820;28;19932;-76
2020/12/18 02:02:03;;;;;;;;;;;;;;;4.38;100.00;101674.06;5111779;28;19934;-76
2020/12/18 02:04:39;;;;;;;;;;;;;;;4.33;100.00;101682.31;5111665;28;19939;-76
2020/12/18 02:07:07;;;;;;;;;;;;;;;4.38;100.00;101679.44;5111597;28;19928;-76
2020/12/18 02:09:43;;;;;;;;;;;;;;;4.39;100.00;101683.88;5111440;28;19930;-76
2020/12/18 02:12:09;;;;;;;;;;;;;;;4.43;100.00;101682.81;5114235;28;19928;-76
2020/12/18 02:14:41;;;;;;;;;;;;;;;4.42;100.00;101684.63;5113327;28;20418;-76
2020/12/18 02:17:07;;;;;;;;;;;;;;;4.38;100.00;101691.06;5111247;28;20015;-76
2020/12/18 02:19:43;;;;;;;;;;;;;;;4.30;100.00;101691.38;5111334;28;20028;-76
2020/12/18 02:22:14;;;;;;;;;;;;;;;4.26;100.00;101688.88;5111515;28;19924;-76
2020/12/18 02:24:49;;;;;;;;;;;;;;;4.19;100.00;101691.78;5110874;28;20388;-76
2020/12/18 02:27:16;;;;;;;;;;;;;;;4.15;100.00;101690.16;5112370;28;19924;-76
2020/12/18 02:29:51;;;;;;;;;;;;;;;4.10;100.00;101689.47;5111512;28;19978;-76
2020/12/18 02:32:18;;;;;;;;;;;;;;;4.04;100.00;101692.41;5111204;28;19924;-76
2020/12/18 02:34:50;;;;;;;;;;;;;;;4.01;100.00;101696.06;5111242;28;19931;-76
2020/12/18 02:37:25;;;;;;;;;;;;;;;4.01;100.00;101700.59;5112337;28;20028;-76
2020/12/18 02:39:56;;;;;;;;;;;;;;;3.98;100.00;101696.19;5111262;28;20373;-76
2020/12/18 02:42:34;;;;;;;;;;;;;;;3.92;100.00;101698.25;5093947;28;19928;-76
2020/12/18 02:45:00;;;;;;;;;;;;;;;3.87;100.00;101687.66;5111059;28;19928;-76
2020/12/18 02:47:46;;;;;;;;;;;;;;;3.83;100.00;101697.63;5112071;28;20553;-76
2020/12/18 02:50:25;;;;;;;;;;;;;;;3.75;100.00;101698.88;5111153;28;19931;-75
2020/12/18 02:52:54;;;;;;;;;;;;;;;3.72;100.00;101699.84;5111150;28;19924;-76
2020/12/18 02:55:39;;;;;;;;;;;;;;;3.65;100.00;101692.97;5111929;28;19947;-76
2020/12/18 02:58:13;;;;;;;;;;;;;;;3.58;100.00;101699.47;5110783;28;19924;-76
2020/12/18 03:00:46;;;;;;;;;;;;;;;3.54;100.00;101697.84;5110840;28;19923;-76
2020/12/18 03:03:12;;;;;;;;;;;;;;;3.47;100.00;101695.38;5112084;28;19931;-76
2020/12/18 03:05:39;;;;;;;;;;;;;;;3.41;100.00;101686.66;5110908;28;20373;-76
2020/12/18 03:08:24;;;;;;;;;;;;;;;3.34;100.00;101691.38;5110786;28;19924;-76
2020/12/18 03:10:51;;;;;;;;;;;;;;;3.29;100.00;101694.22;5111046;28;19968;-76
2020/12/18 03:13:17;;;;;;;;;;;;;;;3.32;100.00;101693.25;5112074;28;19924;-76
2020/12/18 03:15:43;;;;;;;;;;;;;;;3.29;100.00;101696.91;5110825;28;19924;-76
2020/12/18 03:18:28;;;;;;;;;;;;;;;3.15;100.00;101702.78;5112009;28;19977;-76
2020/12/18 03:20:57;;;;;;;;;;;;;;;3.20;100.00;101691.00;5110635;28;20385;-76
2020/12/18 03:23:38;;;;;;;;;;;;;;;3.15;100.00;101699.19;5111848;28;19980;-76
2020/12/18 03:26:22;;;;;;;;;;;;;;;3.10;100.00;101701.16;5110510;28;19931;-76
2020/12/18 03:28:54;;;;;;;;;;;;;;;3.07;100.00;101707.50;5110904;28;20498;-76
2020/12/18 03:31:21;;;;;;;;;;;;;;;2.99;100.00;101704.22;5110577;28;19928;-76
2020/12/18 03:33:47;;;;;;;;;;;;;;;2.88;100.00;101709.94;5113659;28;20015;-76
2020/12/18 03:36:36;;;;;;;;;;;;;;;2.85;100.00;101702.00;5114438;28;20309;-76
2020/12/18 03:39:06;;;;;;;;;;;;;;;2.87;100.00;101700.13;5114405;28;20353;-76
2020/12/18 03:41:33;;;;;;;;;;;;;;;2.99;100.00;101705.09;5114648;28;20293;-76
2020/12/18 03:43:59;;;;;;;;;;;;;;;3.02;100.00;101704.13;5114439;28;19924;-76
2020/12/18 03:46:25;;;;;;;;;;;;;;;3.12;100.00;101699.31;5115280;28;19924;-76
2020/12/18 03:49:03;;;;;;;;;;;;;;;3.01;100.00;101703.22;5114512;28;19924;-76
2020/12/18 03:51:40;;;;;;;;;;;;;;;2.95;100.00;101694.50;5114484;28;20270;-76
2020/12/18 03:54:08;;;;;;;;;;;;;;;2.91;100.00;101703.59;5115334;27;19923;-75
2020/12/18 03:56:42;;;;;;;;;;;;;;;2.86;100.00;101703.75;5115228;28;19930;-76
2020/12/18 03:59:19;;;;;;;;;;;;;;;2.76;100.00;101708.53;5114140;28;19963;-76
2020/12/18 04:02:08;;;;;;;;;;;;;;;2.64;100.00;101711.63;5114384;28;19924;-76
2020/12/18 04:04:37;;;;;;;;;;;;;;;2.50;100.00;101709.41;5114002;28;20392;-76
2020/12/18 04:07:05;;;;;;;;;;;;;;;2.38;100.00;101702.63;5115017;28;19932;-76
2020/12/18 04:09:31;;;;;;;;;;;;;;;2.30;100.00;101702.84;5113957;28;19924;-76
2020/12/18 04:12:03;;;;;;;;;;;;;;;2.13;100.00;101711.41;5113909;28;19928;-76
2020/12/18 04:14:46;;;;;;;;;;;;;;;2.01;100.00;101709.09;5113924;28;19931;-76
2020/12/18 04:17:28;;;;;;;;;;;;;;;2.03;100.00;101711.72;5113670;28;19997;-76
2020/12/18 04:20:01;;;;;;;;;;;;;;;1.92;100.00;101712.03;5113950;28;19984;-76
2020/12/18 04:22:29;;;;;;;;;;;;;;;1.82;100.00;101709.63;5113717;28;20463;-76
2020/12/18 04:25:01;;;;;;;;;;;;;;;1.78;100.00;101712.47;5113738;28;19927;-76
2020/12/18 04:27:33;;;;;;;;;;;;;;;1.68;100.00;101722.53;5113397;28;19934;-76
2020/12/18 04:30:00;;;;;;;;;;;;;;;1.65;100.00;101725.31;5113568;28;19927;-76
2020/12/18 04:32:28;;;;;;;;;;;;;;;1.68;100.00;101727.88;5113425;28;20393;-76
2020/12/18 04:34:56;;;;;;;;;;;;;;;1.64;100.00;101731.56;5113462;28;19924;-76
2020/12/18 04:37:33;;;;;;;;;;;;;;;1.74;100.00;101727.72;5113117;28;19928;-76
2020/12/18 04:40:14;;;;;;;;;;;;;;;1.77;100.00;101724.09;5113398;28;19923;-76
2020/12/18 04:42:56;;;;;;;;;;;;;;;1.74;100.00;101726.81;5113418;28;19947;-76
2020/12/18 04:45:23;;;;;;;;;;;;;;;1.68;100.00;101727.88;5111987;28;19924;-76
2020/12/18 04:47:54;;;;;;;;;;;;;;;1.57;100.00;101728.19;5112915;28;19924;-76
2020/12/18 04:50:22;;;;;;;;;;;;;;;1.62;100.00;101726.25;5113161;28;19924;-76
2020/12/18 04:53:07;;;;;;;;;;;;;;;1.49;100.00;101720.34;5112874;28;19924;-76
2020/12/18 04:55:49;;;;;;;;;;;;;;;1.44;100.00;101724.09;5113057;28;19963;-76
2020/12/18 04:58:22;;;;;;;;;;;;;;;1.32;100.00;101728.88;5112790;28;19955;-76
2020/12/18 05:00:53;;;;;;;;;;;;;;;1.26;100.00;101725.47;5113128;28;19923;-76
2020/12/18 05:03:33;;;;;;;;;;;;;;;1.29;100.00;101726.25;5112947;28;19956;-76
2020/12/18 05:05:59;;;;;;;;;;;;;;;1.37;100.00;101727.88;5112845;28;19924;-76
2020/12/18 05:08:26;;;;;;;;;;;;;;;1.43;100.00;101722.31;5112312;28;19962;-75
2020/12/18 05:10:53;;;;;;;;;;;;;;;1.33;100.00;101732.41;5114552;28;19924;-74
2020/12/18 05:13:28;;;;;;;;;;;;;;;1.38;100.00;101729.59;5113962;28;19930;-74
2020/12/18 05:16:03;;;;;;;;;;;;;;;1.38;100.00;101733.16;5109096;28;19924;-74
2020/12/18 05:19:04;;;;;;;;;;;;;;;1.45;100.00;101725.84;5096153;28;19931;-74
2020/12/18 05:21:44;;;;;;;;;;;;;;;1.42;100.00;101723.28;5099943;28;19924;-74
2020/12/18 05:24:16;;;;;;;;;;;;;;;1.48;100.00;101723.97;5092175;28;19924;-74
2020/12/18 05:26:46;;;;;;;;;;;;;;;1.38;100.00;101732.28;5108398;28;19932;-74
2020/12/18 05:29:13;;;;;;;;;;;;;;;1.37;100.00;101736.75;5112322;28;19924;-74
2020/12/18 05:31:59;;;;;;;;;;;;;;;1.44;100.00;101732.13;5093214;28;20298;-74
2020/12/18 05:34:31;;;;;;;;;;;;;;;1.43;100.00;101744.63;5092789;28;19935;-75
2020/12/18 05:37:07;;;;;;;;;;;;;;;1.42;100.00;101742.88;5112052;28;19930;-74
2020/12/18 05:39:48;;;;;;;;;;;;;;;1.40;100.00;101749.19;5106214;28;19932;-75
2020/12/18 05:42:20;;;;;;;;;;;;;;;1.57;100.00;101746.91;5101135;28;19946;-74
2020/12/18 05:44:47;;;;;;;;;;;;;;;1.67;100.00;101747.53;5099085;28;19924;-76
2020/12/18 05:47:53;;;;;;;;;;;;;;;1.79;100.00;101738.28;5102782;28;20019;-75
2020/12/18 05:50:18;;;;;;;;;;;;;;;1.82;100.00;101749.78;5104526;28;19967;-75
2020/12/18 05:52:53;;;;;;;;;;;;;;;1.87;100.00;101752.38;5091498;28;20015;-75
2020/12/18 05:55:27;;;;;;;;;;;;;;;1.86;100.00;101752.38;5090889;28;19924;-76
2020/12/18 05:58:14;;;;;;;;;;;;;;;1.86;100.00;101755.06;5089954;28;19924;-75
2020/12/18 06:00:57;;;;;;;;;;;;;;;1.78;100.00;101745.44;5104456;28;19930;-75
2020/12/18 06:03:41;;;;;;;;;;;;;;;1.72;100.00;101742.06;5097323;28;19956;-75
2020/12/18 06:06:10;;;;;;;;;;;;;;;1.67;100.00;101745.75;5105035;28;19924;-75
2020/12/18 06:08:40;;;;;;;;;;;;;;;1.60;100.00;101748.63;5111448;28;19950;-74
2020/12/18 06:11:13;;;;;;;;;;;;;;;1.55;100.00;101755.91;5111669;28;19923;-74
2020/12/18 06:14:02;;;;;;;;;;;;;;;1.62;100.00;101757.53;5111457;28;19928;-74
2020/12/18 06:16:47;;;;;;;;;;;;;;;1.64;100.00;101752.97;5112490;28;20042;-74
2020/12/18 06:19:22;;;;;;;;;;;;;;;1.58;100.00;101755.84;5111576;28;19923;-75
2020/12/18 06:21:53;;;;;;;;;;;;;;;1.57;100.00;101752.28;5110230;28;19924;-75
2020/12/18 06:24:29;;;;;;;;;;;;;;;1.53;100.00;101757.78;5111246;28;20409;-74
2020/12/18 06:27:08;;;;;;;;;;;;;;;1.53;100.00;101760.44;5105827;28;19924;-74
2020/12/18 06:29:46;;;;;;;;;;;;;;;1.57;100.00;101762.13;5104969;28;19951;-75
2020/12/18 06:32:31;;;;;;;;;;;;;;;1.54;100.00;101763.06;5101627;28;19959;-75
2020/12/18 06:35:31;;;;;;;;;;;;;;;1.54;100.00;101768.44;5068265;28;19928;-75
2020/12/18 06:38:24;;;;;;;;;;;;;;;1.44;100.00;101767.81;5107688;28;20304;-75
2020/12/18 06:41:25;;;;;;;;;;;;;;;1.30;100.00;101767.28;5111997;28;20273;-75
2020/12/18 06:44:30;;;;;;;;;;;;;;;1.24;100.00;101765.63;5096701;28;19934;-75
2020/12/18 06:47:08;;;;;;;;;;;;;;;1.17;100.00;101770.25;5110510;28;19945;-74
2020/12/18 06:50:07;;;;;;;;;;;;;;;1.27;100.00;101767.34;5112132;28;19924;-74
2020/12/18 06:52:56;;;;;;;;;;;;;;;1.32;100.00;101769.00;5110246;28;19930;-74
2020/12/18 06:55:36;;;;;;;;;;;;;;;1.28;100.00;101764.66;5110574;28;19959;-74
2020/12/18 06:58:40;;;;;;;;;;;;;;;1.41;100.00;101772.34;5079117;28;20022;-74
2020/12/18 07:01:07;;;;;;;;;;;;;;;1.48;100.00;101771.25;5104708;28;19931;-74
2020/12/18 07:03:35;;;;;;;;;;;;;;;1.56;100.00;101774.59;5108949;28;19951;-74
2020/12/18 07:06:02;;;;;;;;;;;;;;;1.59;100.00;101769.19;5091513;28;19928;-74
2020/12/18 07:08:31;;;;;;;;;;;;;;;1.62;100.00;101762.88;5094343;28;19977;-74
2020/12/18 07:10:59;;;;;;;;;;;;;;;1.63;100.00;101764.59;5096870;28;19962;-74
2020/12/18 07:13:25;;;;;;;;;;;;;;;1.71;100.00;101767.06;5110717;28;19963;-74
2020/12/18 07:15:51;;;;;;;;;;;;;;;1.75;100.00;101766.97;5113776;28;19928;-74
2020/12/18 07:18:21;;;;;;;;;;;;;;;1.77;100.00;101770.47;5114859;28;19931;-75
2020/12/18 07:20:48;;;;;;;;;;;;;;;1.81;100.00;101772.13;5115473;28;20024;-74
2020/12/18 07:23:14;;;;;;;;;;;;;;;1.82;100.00;101778.38;5099094;28;19986;-74
2020/12/18 07:25:41;;;;;;;;;;;;;;;1.83;100.00;101774.75;5094868;28;19924;-74
2020/12/18 07:28:07;;;;;;;;;;;;;;;1.82;100.00;101778.38;5113577;28;19989;-74
2020/12/18 07:30:37;;;;;;;;;;;;;;;1.80;100.00;101778.44;5115090;28;20022;-74
2020/12/18 07:33:02;;;;;;;;;;;;;;;1.77;100.00;101773.13;5102026;28;20393;-74
2020/12/18 07:35:28;;;;;;;;;;;;;;;1.79;100.00;101778.44;5094808;28;19928;-74
2020/12/18 07:37:54;;;;;;;;;;;;;;;1.77;100.00;101777.63;5108028;28;20325;-74
2020/12/18 07:40:20;;;;;;;;;;;;;;;1.78;100.00;101776.72;5101904;28;19923;-75
2020/12/18 07:42:46;;;;;;;;;;;;;;;1.79;100.00;101784.69;5107649;28;19923;-75
2020/12/18 07:45:12;;;;;;;;;;;;;;;1.78;100.00;101784.75;5104899;28;19946;-75
2020/12/18 07:47:38;;;;;;;;;;;;;;;1.78;100.00;101782.94;5096929;28;20478;-75
2020/12/18 07:50:05;;;;;;;;;;;;;;;1.76;100.00;101775.88;5115259;28;19927;-75
2020/12/18 07:52:33;;;;;;;;;;;;;;;1.75;100.00;101780.34;5099986;28;20055;-75
2020/12/18 07:54:58;;;;;;;;;;;;;;;1.75;100.00;101784.81;5094787;28;20018;-75
2020/12/18 07:57:24;;;;;;;;;;;;;;;1.81;100.00;101777.50;5107695;28;19930;-75
2020/12/18 07:59:51;;;;;;;;;;;;;;;1.96;100.00;101788.69;5110940;28;20427;-75
2020/12/18 08:02:24;;;;;;;;;;;;;;;2.05;100.00;101788.44;5110767;28;19923;-74
2020/12/18 08:05:00;;;;;;;;;;;;;;;2.11;100.00;101788.28;5103364;28;19947;-74
2020/12/18 08:07:27;;;;;;;;;;;;;;;2.16;100.00;101789.03;5113642;28;19939;-74
2020/12/18 08:09:58;;;;;;;;;;;;;;;2.11;100.00;101792.72;5105870;28;19924;-75
2020/12/18 08:12:24;;;;;;;;;;;;;;;2.08;100.00;101793.69;5105180;28;20007;-73
2020/12/18 08:14:50;;;;;;;;;;;;;;;2.01;100.00;101795.66;5094727;28;19931;-76
2020/12/18 08:17:22;;;;;;;;;;;;;;;1.95;100.00;101800.31;5102058;28;20014;-75
2020/12/18 08:19:50;;;;;;;;;;;;;;;2.00;100.00;101799.28;5114727;28;20018;-76
2020/12/18 08:22:16;;;;;;;;;;;;;;;2.19;100.00;101801.41;5113807;28;20022;-75
2020/12/18 08:24:42;;;;;;;;;;;;;;;2.43;100.00;101799.84;5112768;28;19923;-75
2020/12/18 08:27:09;;;;;;;;;;;;;;;2.75;100.00;101806.00;5113027;28;19997;-75
2020/12/18 08:29:36;;;;;;;;;;;;;;;2.88;100.00;101803.81;5114651;28;20601;-75
2020/12/18 08:32:02;;;;;;;;;;;;;;;2.95;100.00;101807.19;5104710;28;20010;-75
2020/12/18 08:34:30;;;;;;;;;;;;;;;3.01;100.00;101804.31;5094119;28;20354;-75
2020/12/18 08:36:56;;;;;;;;;;;;;;;3.11;100.00;101804.88;5112195;28;19923;-75
2020/12/18 08:39:22;;;;;;;;;;;;;;;3.15;100.00;101796.69;5113668;28;19963;-75
2020/12/18 08:41:49;;;;;;;;;;;;;;;3.22;100.00;101802.72;5113785;28;19966;-75
2020/12/18 08:44:16;;;;;;;;;;;;;;;3.34;100.00;101806.78;5113975;28;20412;-75
2020/12/18 08:46:42;;;;;;;;;;;;;;;3.36;100.00;101804.94;5099840;28;20015;-75
2020/12/18 08:49:15;;;;;;;;;;;;;;;3.49;100.00;101806.28;5104532;28;19963;-75
2020/12/18 08:51:42;;;;;;;;;;;;;;;3.55;100.00;101810.56;5113186;28;20378;-75
2020/12/18 08:54:23;;;;;;;;;;;;;;;3.77;100.00;101810.69;5113448;28;19924;-75
2020/12/18 08:57:04;;;;;;;;;;;;;;;4.00;100.00;101808.97;5099104;28;20271;-75
2020/12/18 08:59:30;;;;;;;;;;;;;;;4.10;100.00;101804.13;5093342;28;19982;-74
2020/12/18 09:01:56;;;;;;;;;;;;;;;4.34;100.00;101805.03;5093376;28;20275;-74
2020/12/18 09:04:21;;;;;;;;;;;;;;;4.78;100.00;101813.19;5093007;28;19928;-74
2020/12/18 09:06:50;;;;;;;;;;;;;;;5.18;100.00;101813.38;5112045;28;19927;-74
2020/12/18 09:09:17;;;;;;;;;;;;;;;5.58;100.00;101794.69;5112639;28;20439;-75
2020/12/18 09:11:45;;;;;;;;;;;;;;;5.97;100.00;101792.06;5113243;28;19924;-75
2020/12/18 09:14:25;;;;;;;;;;;;;;;6.28;100.00;101784.41;5111531;28;19923;-74
2020/12/18 09:16:53;;;;;;;;;;;;;;;6.41;100.00;101766.69;5093646;28;19963;-74
2020/12/18 09:19:19;;;;;;;;;;;;;;;6.66;100.00;101762.84;5106783;28;19959;-74
2020/12/18 09:21:44;;;;;;;;;;;;;;;6.90;100.00;101766.16;5110892;28;19924;-75
2020/12/18 09:24:17;;;;;;;;;;;;;;;7.08;100.00;101758.09;5097677;28;19928;-74
2020/12/18 09:26:43;;;;;;;;;;;;;;;7.17;100.00;101757.66;5093152;28;20443;-75
2020/12/18 09:29:14;;;;;;;;;;;;;;;7.13;100.00;101767.72;5107996;28;19928;-75
2020/12/18 09:31:40;;;;;;;;;;;;;;;7.19;100.00;101766.56;5093046;28;20019;-74
2020/12/18 09:34:11;;;;;;;;;;;;;;;7.29;100.00;101766.94;5092403;28;19924;-75
2020/12/18 09:36:37;;;;;;;;;;;;;;;7.26;100.00;101767.97;5100399;28;20027;-75
2020/12/18 09:39:03;;;;;;;;;;;;;;;7.53;100.00;101771.09;5111298;28;20373;-75
2020/12/18 09:41:30;;;;;;;;;;;;;;;7.59;100.00;101766.31;5095526;28;20033;-75
2020/12/18 09:43:55;;;;;;;;;;;;;;;7.68;100.00;101761.31;5104058;28;20019;-75
2020/12/18 09:46:23;;;;;;;;;;;;;;;7.78;100.00;101758.13;5111233;28;19934;-75
2020/12/18 09:48:49;;;;;;;;;;;;;;;7.80;100.00;101765.22;5107406;28;19924;-75
2020/12/18 09:51:15;;;;;;;;;;;;;;;7.80;100.00;101762.50;5092652;28;19958;-75
2020/12/18 09:53:41;;;;;;;;;;;;;;;7.72;100.00;101762.00;5111622;28;20022;-76
2020/12/18 09:56:07;;;;;;;;;;;;;;;7.49;100.00;101761.38;5112840;28;19943;-76
2020/12/18 09:58:34;;;;;;;;;;;;;;;7.36;100.00;101758.47;5105043;28;19928;-77
2020/12/18 10:01:00;;;;;;;;;;;;;;;7.48;100.00;101756.06;5112925;28;20301;-75
2020/12/18 10:03:26;;;;;;;;;;;;;;;7.34;100.00;101762.19;5104060;28;19931;-75
2020/12/18 10:05:51;;;;;;;;;;;;;;;7.41;100.00;101760.06;5098760;28;19927;-76
2020/12/18 10:08:18;;;;;;;;;;;;;;;7.40;100.00;101753.75;5112366;28;19927;-75
2020/12/18 10:10:44;;;;;;;;;;;;;;;7.54;100.00;101753.91;5110508;28;19924;-76
2020/12/18 10:13:10;;;;;;;;;;;;;;;7.50;100.00;101744.22;5112451;28;20014;-76
2020/12/18 10:15:36;;;;;;;;;;;;;;;7.52;100.00;101753.16;5096813;28;19966;-76
2020/12/18 10:18:03;;;;;;;;;;;;;;;7.29;100.00;101746.22;5111443;28;20361;-75
2020/12/18 10:20:28;;;;;;;;;;;;;;;7.11;100.00;101750.72;5107376;28;20023;-76
2020/12/18 10:22:54;;;;;;;;;;;;;;;6.79;100.00;101744.25;5094207;28;19924;-75
2020/12/18 10:25:20;;;;;;;;;;;;;;;6.48;100.00;101749.28;5092047;28;20378;-75
2020/12/18 10:27:46;;;;;;;;;;;;;;;6.40;100.00;101750.59;5095508;28;19924;-75
2020/12/18 10:30:12;;;;;;;;;;;;;;;6.24;100.00;101743.25;5092089;28;19928;-76
2020/12/18 10:32:38;;;;;;;;;;;;;;;6.13;100.00;101743.75;5095200;28;20374;-76
2020/12/18 10:35:05;;;;;;;;;;;;;;;6.10;100.00;101745.69;5091918;28;20282;-76
2020/12/18 10:37:30;;;;;;;;;;;;;;;5.80;100.00;101735.31;5099334;28;19923;-76
2020/12/18 10:39:57;;;;;;;;;;;;;;;5.80;100.00;101736.22;5112177;28;20396;-76
2020/12/18 10:42:23;;;;;;;;;;;;;;;5.79;100.00;101726.38;5091633;28;19924;-75
2020/12/18 10:44:49;;;;;;;;;;;;;;;5.81;100.00;101729.88;5091872;28;19924;-75
2020/12/18 10:47:14;;;;;;;;;;;;;;;6.10;100.00;101729.53;5105769;28;19976;-75
2020/12/18 10:49:41;;;;;;;;;;;;;;;6.31;100.00;101733.03;5094242;28;19932;-75
2020/12/18 10:52:07;;;;;;;;;;;;;;;6.46;100.00;101739.53;5099522;28;20361;-76
2020/12/18 10:54:33;;;;;;;;;;;;;;;6.62;100.00;101739.66;5111899;28;19934;-76
2020/12/18 10:56:58;;;;;;;;;;;;;;;6.72;100.00;101742.78;5099186;28;19951;-75
2020/12/18 10:59:26;;;;;;;;;;;;;;;6.92;100.00;101741.78;5101193;28;19924;-76
2020/12/18 11:01:52;;;;;;;;;;;;;;;6.91;100.00;101734.63;5101408;28;20389;-75
2020/12/18 11:04:18;;;;;;;;;;;;;;;6.90;100.00;101732.91;5099846;28;19959;-75
2020/12/18 11:06:44;;;;;;;;;;;;;;;6.85;100.00;101731.31;5105409;28;19976;-77
2020/12/18 11:09:10;;;;;;;;;;;;;;;6.84;100.00;101732.25;5108900;28;20031;-75
2020/12/18 11:11:36;;;;;;;;;;;;;;;6.84;100.00;101728.66;5106184;28;19931;-75
2020/12/18 11:14:02;;;;;;;;;;;;;;;6.89;100.00;101739.25;5109768;28;19938;-76
2020/12/18 11:16:28;;;;;;;;;;;;;;;7.00;100.00;101729.69;5109245;28;19977;-76
2020/12/18 11:18:54;;;;;;;;;;;;;;;7.04;100.00;101728.56;5102171;28;20393;-76
2020/12/18 11:21:19;;;;;;;;;;;;;;;7.15;100.00;101728.03;5102327;28;19928;-76
2020/12/18 11:23:46;;;;;;;;;;;;;;;7.15;100.00;101728.03;5102256;28;19924;-76
2020/12/18 11:26:12;;;;;;;;;;;;;;;7.22;100.00;101727.72;5099971;28;20024;-76
2020/12/18 11:28:38;;;;;;;;;;;;;;;6.96;100.00;101733.47;5101338;28;20369;-76
2020/12/18 11:31:05;;;;;;;;;;;;;;;7.03;100.00;101734.91;5101721;28;19924;-76
2020/12/18 11:33:31;;;;;;;;;;;;;;;7.17;100.00;101733.34;5100909;28;19924;-75
2020/12/18 11:35:57;;;;;;;;;;;;;;;7.23;100.00;101734.84;5100906;28;20016;-76
2020/12/18 11:38:23;;;;;;;;;;;;;;;7.34;100.00;101732.47;5097797;28;19931;-76
2020/12/18 11:40:49;;;;;;;;;;;;;;;7.18;100.00;101727.00;5107244;28;19931;-76
2020/12/18 11:43:15;;;;;;;;;;;;;;;7.26;100.00;101729.31;5095422;28;20050;-76
2020/12/18 11:45:41;;;;;;;;;;;;;;;7.48;100.00;101723.66;5100395;28;19935;-76
2020/12/18 11:48:07;;;;;;;;;;;;;;;7.43;100.00;101712.19;5100641;28;19931;-76
2020/12/18 11:50:32;;;;;;;;;;;;;;;7.41;100.00;101720.38;5110351;28;19927;-76
2020/12/18 11:52:58;;;;;;;;;;;;;;;7.63;100.00;101708.44;5111608;28;19981;-76
2020/12/18 11:55:24;;;;;;;;;;;;;;;7.57;100.00;101711.50;5115305;28;19931;-76
2020/12/18 11:57:51;;;;;;;;;;;;;;;7.69;100.00;101708.13;5115106;28;20305;-75
2020/12/18 12:00:19;;;;;;;;;;;;;;;7.67;100.00;101716.31;5114888;28;20301;-75
2020/12/18 12:02:46;;;;;;;;;;;;;;;7.69;100.00;101717.09;5114932;28;20015;-76
2020/12/18 12:05:11;;;;;;;;;;;;;;;7.63;100.00;101719.25;5115084;28;20006;-75
2020/12/18 12:07:37;;;;;;;;;;;;;;;7.61;100.00;101705.84;5113404;28;20016;-75
2020/12/18 12:10:03;;;;;;;;;;;;;;;7.50;100.00;101695.59;5115205;28;19923;-75
2020/12/18 12:12:29;;;;;;;;;;;;;;;7.54;100.00;101701.72;5115169;28;19951;-75
2020/12/18 12:14:55;;;;;;;;;;;;;;;7.37;100.00;101699.91;5115062;28;19924;-76
2020/12/18 12:17:21;;;;;;;;;;;;;;;7.31;100.00;101708.31;5114799;28;19969;-76
2020/12/18 12:19:47;;;;;;;;;;;;;;;7.33;100.00;101698.31;5114856;28;19924;-76
2020/12/18 12:22:13;;;;;;;;;;;;;;;7.48;100.00;101704.72;5114672;28;19923;-76
2020/12/18 12:24:42;;;;;;;;;;;;;;;7.45;100.00;101696.81;5114767;28;19976;-75
2020/12/18 12:27:09;;;;;;;;;;;;;;;7.32;100.00;101688.44;5114784;28;20342;-76
2020/12/18 12:29:34;;;;;;;;;;;;;;;7.31;100.00;101687.59;5114584;28;20401;-75
2020/12/18 12:32:01;;;;;;;;;;;;;;;7.40;100.00;101690.75;5114725;28;19931;-75
2020/12/18 12:34:27;;;;;;;;;;;;;;;7.47;100.00;101689.47;5100889;28;19970;-72
2020/12/18 12:36:55;;;;;;;;;;;;;;;7.62;100.00;101693.22;5109719;28;19969;-73
2020/12/18 12:39:21;;;;;;;;;;;;;;;7.75;100.00;101688.91;5113775;28;20018;-73
2020/12/18 12:41:46;;;;;;;;;;;;;;;7.84;100.00;101693.81;5114286;28;20404;-73
2020/12/18 12:44:12;;;;;;;;;;;;;;;7.93;100.00;101691.56;5114195;28;19950;-73
2020/12/18 12:46:38;;;;;;;;;;;;;;;8.14;100.00;101700.31;5113421;28;19972;-73
2020/12/18 12:49:04;;;;;;;;;;;;;;;8.29;100.00;101690.47;5114093;28;20009;-73
2020/12/18 12:51:30;;;;;;;;;;;;;;;8.44;100.00;101696.84;5114155;28;20486;-73